createdAt,value
2023-01-20T00:00:46.302Z,9.90
2023-01-20T00:01:46.169Z,10.30
2023-01-20T00:02:46.174Z,11.00
2023-01-20T00:03:46.148Z,11.70
2023-01-20T00:04:46.117Z,8.90
2023-01-20T00:05:46.152Z,11.50
2023-01-20T00:06:46.128Z,12.10
2023-01-20T00:07:46.091Z,9.50
2023-01-20T00:08:46.072Z,11.30
2023-01-20T00:09:46.061Z,11.50
2023-01-20T00:10:46.095Z,10.70
2023-01-20T00:11:46.057Z,15.10
2023-01-20T00:12:46.053Z,13.60
2023-01-20T00:13:46.032Z,12.50
2023-01-20T00:14:46.011Z,17.30
2023-01-20T00:15:46.029Z,12.60
2023-01-20T00:16:46.022Z,13.20
2023-01-20T00:17:45.979Z,11.20
2023-01-20T00:18:45.970Z,11.90
2023-01-20T00:19:45.984Z,15.80
2023-01-20T00:20:45.943Z,15.50
2023-01-20T00:21:45.942Z,16.70
2023-01-20T00:22:45.942Z,16.60
2023-01-20T00:23:45.909Z,18.10
2023-01-20T00:24:45.916Z,15.90
2023-01-20T00:25:45.891Z,18.10
2023-01-20T00:26:45.898Z,16.00
2023-01-20T00:27:45.895Z,22.10
2023-01-20T00:28:45.858Z,23.20
2023-01-20T00:29:45.842Z,21.10
2023-01-20T00:30:45.883Z,20.80
2023-01-20T00:31:45.925Z,20.50
2023-01-20T00:32:45.818Z,22.40
2023-01-20T00:33:45.848Z,21.10
2023-01-20T00:34:45.810Z,17.80
2023-01-20T00:35:45.781Z,20.80
2023-01-20T00:36:45.826Z,20.40
2023-01-20T00:37:45.784Z,22.30
2023-01-20T00:38:45.754Z,23.40
2023-01-20T00:39:45.739Z,22.00
2023-01-20T00:40:45.762Z,26.10
2023-01-20T00:41:45.735Z,22.90
2023-01-20T00:42:45.721Z,27.20
2023-01-20T00:43:45.728Z,24.00
2023-01-20T00:44:45.683Z,26.10
2023-01-20T00:45:45.696Z,24.80
2023-01-20T00:46:45.752Z,23.10
2023-01-20T00:47:45.663Z,27.00
2023-01-20T00:48:45.644Z,20.90
2023-01-20T00:49:45.645Z,23.00
2023-01-20T00:50:45.648Z,26.40
2023-01-20T00:51:45.650Z,32.00
2023-01-20T00:52:45.593Z,27.50
2023-01-20T00:53:45.595Z,26.90
2023-01-20T00:54:45.597Z,25.60
2023-01-20T00:55:45.580Z,26.70
2023-01-20T00:56:45.581Z,28.70
2023-01-20T00:57:45.567Z,32.60
2023-01-20T00:58:45.548Z,31.30
2023-01-20T00:59:45.562Z,30.80
2023-01-20T01:00:45.539Z,29.30
2023-01-20T01:01:45.619Z,31.00
2023-01-20T01:02:45.524Z,30.30
2023-01-20T01:03:45.493Z,29.90
2023-01-20T01:04:45.490Z,28.80
2023-01-20T01:05:45.463Z,35.60
2023-01-20T01:06:45.489Z,29.60
2023-01-20T01:07:45.439Z,34.30
2023-01-20T01:08:45.457Z,36.50
2023-01-20T01:09:45.422Z,32.90
2023-01-20T01:10:45.452Z,39.50
2023-01-20T01:11:45.423Z,33.90
2023-01-20T01:12:45.386Z,37.80
2023-01-20T01:13:45.408Z,34.00
2023-01-20T01:14:45.376Z,38.40
2023-01-20T01:15:45.353Z,38.50
2023-01-20T01:16:45.363Z,37.10
2023-01-20T01:17:45.368Z,37.80
2023-01-20T01:18:45.338Z,36.30
2023-01-20T01:19:45.307Z,37.60
2023-01-20T01:20:45.306Z,38.50
2023-01-20T01:21:45.311Z,36.40
2023-01-20T01:22:45.272Z,37.70
2023-01-20T01:23:45.277Z,36.10
2023-01-20T01:24:45.269Z,41.20
2023-01-20T01:25:45.249Z,41.90
2023-01-20T01:26:45.251Z,40.80
2023-01-20T01:27:45.244Z,46.60
2023-01-20T01:28:45.219Z,41.40
2023-01-20T01:29:45.205Z,40.70
2023-01-20T01:30:45.241Z,42.60
2023-01-20T01:31:45.253Z,46.20
2023-01-20T01:32:45.172Z,42.40
2023-01-20T01:33:45.157Z,40.30
2023-01-20T01:34:45.150Z,38.10
2023-01-20T01:35:45.150Z,43.80
2023-01-20T01:36:45.151Z,42.30
2023-01-20T01:37:45.142Z,46.60
2023-01-20T01:38:45.153Z,40.10
2023-01-20T01:39:45.111Z,43.30
2023-01-20T01:40:45.086Z,40.10
2023-01-20T01:41:45.113Z,42.30
2023-01-20T01:42:45.079Z,41.10
2023-01-20T01:43:45.049Z,39.10
2023-01-20T01:44:45.078Z,44.70
2023-01-20T01:45:45.087Z,44.50
2023-01-20T01:46:45.034Z,41.50
2023-01-20T01:47:45.017Z,44.10
2023-01-20T01:48:45.027Z,40.10
2023-01-20T01:49:44.995Z,41.80
2023-01-20T01:50:44.977Z,42.10
2023-01-20T01:51:44.989Z,46.70
2023-01-20T01:52:44.958Z,47.90
2023-01-20T01:53:44.967Z,45.10
2023-01-20T01:54:44.927Z,42.50
2023-01-20T01:55:44.923Z,46.30
2023-01-20T01:56:44.940Z,39.70
2023-01-20T01:57:44.911Z,44.60
2023-01-20T01:58:44.902Z,42.70
2023-01-20T01:59:44.904Z,45.00
2023-01-20T02:00:44.917Z,44.20
2023-01-20T02:01:45.066Z,38.20
2023-01-20T02:02:44.864Z,40.50
2023-01-20T02:03:44.855Z,43.70
2023-01-20T02:04:44.830Z,47.70
2023-01-20T02:05:44.827Z,47.60
2023-01-20T02:06:44.823Z,44.20
2023-01-20T02:07:44.805Z,48.20
2023-01-20T02:08:44.784Z,45.70
2023-01-20T02:09:44.777Z,46.70
2023-01-20T02:10:44.787Z,43.30
2023-01-20T02:11:44.779Z,43.00
2023-01-20T02:12:44.757Z,46.70
2023-01-20T02:13:44.741Z,47.30
2023-01-20T02:14:44.720Z,47.10
2023-01-20T02:15:44.718Z,51.20
2023-01-20T02:16:44.759Z,46.80
2023-01-20T02:17:44.690Z,52.60
2023-01-20T02:18:44.701Z,53.60
2023-01-20T02:19:44.672Z,55.00
2023-01-20T02:20:44.652Z,49.20
2023-01-20T02:21:44.671Z,52.30
2023-01-20T02:22:44.657Z,54.20
2023-01-20T02:23:44.633Z,50.50
2023-01-20T02:24:44.609Z,53.10
2023-01-20T02:25:44.616Z,58.30
2023-01-20T02:26:44.612Z,58.60
2023-01-20T02:27:44.596Z,59.40
2023-01-20T02:28:44.567Z,58.10
2023-01-20T02:29:44.580Z,55.90
2023-01-20T02:30:44.607Z,55.40
2023-01-20T02:31:44.611Z,62.50
2023-01-20T02:32:44.539Z,57.50
2023-01-20T02:33:44.513Z,60.70
2023-01-20T02:34:44.511Z,62.40
2023-01-20T02:35:44.502Z,60.80
2023-01-20T02:36:44.480Z,61.70
2023-01-20T02:37:44.486Z,61.40
2023-01-20T02:38:44.462Z,65.70
2023-01-20T02:39:44.457Z,64.60
2023-01-20T02:40:44.445Z,64.00
2023-01-20T02:41:44.437Z,61.10
2023-01-20T02:42:44.439Z,60.10
2023-01-20T02:43:44.402Z,58.10
2023-01-20T02:44:44.399Z,61.00
2023-01-20T02:45:44.411Z,62.10
2023-01-20T02:46:44.389Z,58.60
2023-01-20T02:47:51.894Z,66.80
2023-01-20T02:48:44.474Z,60.00
2023-01-20T02:49:44.347Z,64.80
2023-01-20T02:50:44.329Z,65.40
2023-01-20T02:51:44.361Z,68.30
2023-01-20T02:52:44.355Z,67.30
2023-01-20T02:53:44.312Z,75.30
2023-01-20T02:54:44.288Z,68.40
2023-01-20T02:55:44.274Z,71.40
2023-01-20T02:56:44.273Z,73.70
2023-01-20T02:57:44.302Z,69.20
2023-01-20T02:58:44.249Z,67.70
2023-01-20T02:59:44.243Z,68.00
2023-01-20T03:00:44.230Z,68.90
2023-01-20T03:01:44.327Z,63.90
2023-01-20T03:02:44.228Z,65.10
2023-01-20T03:03:44.199Z,64.00
2023-01-20T03:04:44.188Z,60.20
2023-01-20T03:05:44.289Z,59.90
2023-01-20T03:06:44.161Z,60.60
2023-01-20T03:07:44.207Z,58.20
2023-01-20T03:08:44.168Z,56.50
2023-01-20T03:09:44.161Z,61.30
2023-01-20T03:10:44.115Z,63.10
2023-01-20T03:11:44.143Z,59.70
2023-01-20T03:12:44.105Z,56.90
2023-01-20T03:13:44.085Z,63.80
2023-01-20T03:14:44.094Z,61.20
2023-01-20T03:15:44.060Z,57.90
2023-01-20T03:16:44.136Z,63.60
2023-01-20T03:17:44.074Z,65.40
2023-01-20T03:18:44.031Z,65.40
2023-01-20T03:19:44.081Z,69.90
2023-01-20T03:20:44.021Z,65.00
2023-01-20T03:21:44.026Z,60.90
2023-01-20T03:22:44.030Z,62.70
2023-01-20T03:23:44.014Z,66.70
2023-01-20T03:24:43.975Z,64.50
2023-01-20T03:25:43.987Z,74.10
2023-01-20T03:26:43.946Z,69.40
2023-01-20T03:27:43.983Z,71.70
2023-01-20T03:28:43.935Z,71.60
2023-01-20T03:29:43.960Z,68.50
2023-01-20T03:30:44.001Z,65.40
2023-01-20T03:31:44.065Z,68.70
2023-01-20T03:32:43.899Z,67.20
2023-01-20T03:33:43.876Z,64.40
2023-01-20T03:34:43.876Z,67.50
2023-01-20T03:35:43.855Z,66.70
2023-01-20T03:36:43.840Z,67.50
2023-01-20T03:37:43.867Z,64.30
2023-01-20T03:38:43.819Z,67.60
2023-01-20T03:39:43.801Z,69.90
2023-01-20T03:40:43.795Z,71.10
2023-01-20T03:41:43.783Z,67.60
2023-01-20T03:42:51.664Z,65.30
2023-01-20T03:43:43.784Z,65.30
2023-01-20T03:44:43.751Z,65.70
2023-01-20T03:45:43.817Z,62.50
2023-01-20T03:46:43.741Z,59.50
2023-01-20T03:47:43.742Z,66.20
2023-01-20T03:48:43.716Z,64.60
2023-01-20T03:49:43.711Z,63.90
2023-01-20T03:50:43.682Z,62.50
2023-01-20T03:51:43.683Z,62.90
2023-01-20T03:52:46.668Z,59.20
2023-01-20T03:53:43.680Z,60.70
2023-01-20T03:54:43.681Z,59.60
2023-01-20T03:55:43.653Z,60.40
2023-01-20T03:56:43.659Z,59.90
2023-01-20T03:57:43.647Z,56.00
2023-01-20T03:58:43.619Z,55.20
2023-01-20T03:59:43.590Z,58.70
2023-01-20T04:00:43.592Z,56.80
2023-01-20T04:01:43.724Z,60.20
2023-01-20T04:02:43.583Z,58.50
2023-01-20T04:03:43.607Z,56.00
2023-01-20T04:04:43.537Z,62.20
2023-01-20T04:05:43.539Z,57.40
2023-01-20T04:06:43.522Z,55.40
2023-01-20T04:07:43.538Z,55.10
2023-01-20T04:08:43.516Z,54.80
2023-01-20T04:09:43.488Z,57.80
2023-01-20T04:10:43.482Z,56.30
2023-01-20T04:11:43.515Z,55.70
2023-01-20T04:12:43.474Z,56.40
2023-01-20T04:13:43.443Z,52.30
2023-01-20T04:14:43.470Z,53.20
2023-01-20T04:15:43.424Z,55.20
2023-01-20T04:16:43.400Z,51.90
2023-01-20T04:17:43.422Z,52.40
2023-01-20T04:18:43.429Z,50.20
2023-01-20T04:19:43.381Z,54.60
2023-01-20T04:20:43.366Z,49.20
2023-01-20T04:21:43.370Z,52.10
2023-01-20T04:22:43.396Z,50.90
2023-01-20T04:23:43.334Z,53.50
2023-01-20T04:24:43.323Z,48.30
2023-01-20T04:25:43.317Z,50.20
2023-01-20T04:26:43.325Z,48.80
2023-01-20T04:27:43.312Z,52.60
2023-01-20T04:28:43.281Z,49.40
2023-01-20T04:29:43.271Z,49.10
2023-01-20T04:30:43.403Z,48.20
2023-01-20T04:31:43.279Z,49.70
2023-01-20T04:32:43.258Z,52.20
2023-01-20T04:33:43.225Z,51.40
2023-01-20T04:34:43.222Z,49.60
2023-01-20T04:35:43.230Z,53.20
2023-01-20T04:36:43.245Z,51.90
2023-01-20T04:37:43.198Z,49.40
2023-01-20T04:38:43.198Z,49.40
2023-01-20T04:39:43.165Z,52.80
2023-01-20T04:40:43.159Z,51.60
2023-01-20T04:41:43.153Z,47.10
2023-01-20T04:42:43.158Z,49.70
2023-01-20T04:43:43.152Z,47.20
2023-01-20T04:44:43.107Z,52.00
2023-01-20T04:45:43.120Z,54.60
2023-01-20T04:46:43.109Z,46.30
2023-01-20T04:47:43.106Z,53.40
2023-01-20T04:48:43.066Z,45.50
2023-01-20T04:49:43.056Z,49.20
2023-01-20T04:50:43.038Z,46.90
2023-01-20T04:51:43.033Z,47.00
2023-01-20T04:52:43.066Z,48.00
2023-01-20T04:53:42.999Z,46.70
2023-01-20T04:54:43.010Z,47.10
2023-01-20T04:55:43.013Z,48.60
2023-01-20T04:56:42.984Z,44.70
2023-01-20T04:57:42.981Z,47.00
2023-01-20T04:58:43.000Z,51.20
2023-01-20T04:59:42.941Z,46.10
2023-01-20T05:00:43.750Z,48.20
2023-01-20T05:01:43.045Z,43.30
2023-01-20T05:02:42.997Z,46.00
2023-01-20T05:03:42.901Z,47.70
2023-01-20T05:04:42.923Z,45.20
2023-01-20T05:05:42.875Z,44.10
2023-01-20T05:06:42.879Z,48.60
2023-01-20T05:07:42.878Z,44.70
2023-01-20T05:08:42.846Z,46.60
2023-01-20T05:09:42.862Z,42.80
2023-01-20T05:10:42.838Z,41.40
2023-01-20T05:11:42.835Z,43.80
2023-01-20T05:12:42.827Z,45.80
2023-01-20T05:13:42.793Z,47.00
2023-01-20T05:14:42.789Z,45.00
2023-01-20T05:15:42.812Z,42.70
2023-01-20T05:16:42.762Z,44.70
2023-01-20T05:17:42.767Z,44.50
2023-01-20T05:18:42.754Z,45.50
2023-01-20T05:19:42.731Z,45.10
2023-01-20T05:20:42.724Z,43.00
2023-01-20T05:21:42.715Z,45.80
2023-01-20T05:22:42.720Z,42.60
2023-01-20T05:23:42.749Z,47.80
2023-01-20T05:24:42.692Z,44.00
2023-01-20T05:25:42.697Z,43.60
2023-01-20T05:26:42.667Z,42.70
2023-01-20T05:27:42.656Z,44.70
2023-01-20T05:28:42.662Z,42.40
2023-01-20T05:29:42.651Z,42.50
2023-01-20T05:30:42.719Z,42.80
2023-01-20T05:31:42.645Z,45.80
2023-01-20T05:32:42.604Z,43.80
2023-01-20T05:33:42.606Z,45.60
2023-01-20T05:34:42.570Z,44.50
2023-01-20T05:35:42.583Z,39.70
2023-01-20T05:36:42.557Z,42.00
2023-01-20T05:37:42.548Z,42.10
2023-01-20T05:38:42.558Z,45.50
2023-01-20T05:39:42.524Z,45.80
2023-01-20T05:40:42.506Z,43.80
2023-01-20T05:41:42.505Z,44.30
2023-01-20T05:42:42.478Z,44.00
2023-01-20T05:43:42.486Z,39.30
2023-01-20T05:44:42.475Z,42.30
2023-01-20T05:45:42.467Z,41.40
2023-01-20T05:46:42.527Z,44.00
2023-01-20T05:47:42.431Z,41.70
2023-01-20T05:48:42.443Z,43.40
2023-01-20T05:49:42.421Z,43.90
2023-01-20T05:50:42.397Z,45.30
2023-01-20T05:51:42.408Z,41.40
2023-01-20T05:52:42.373Z,45.50
2023-01-20T05:53:42.390Z,45.70
2023-01-20T05:54:42.353Z,42.50
2023-01-20T05:55:42.352Z,42.80
2023-01-20T05:56:42.334Z,41.40
2023-01-20T05:57:42.325Z,42.90
2023-01-20T05:58:42.333Z,42.40
2023-01-20T05:59:42.302Z,44.70
2023-01-20T06:00:42.288Z,40.20
2023-01-20T06:01:42.276Z,43.50
2023-01-20T06:02:42.357Z,43.80
2023-01-20T06:03:42.315Z,44.90
2023-01-20T06:04:42.245Z,41.40
2023-01-20T06:05:42.232Z,45.00
2023-01-20T06:06:42.233Z,42.00
2023-01-20T06:07:42.244Z,44.30
2023-01-20T06:08:42.229Z,43.60
2023-01-20T06:09:42.203Z,41.50
2023-01-20T06:10:42.182Z,39.40
2023-01-20T06:11:42.171Z,45.40
2023-01-20T06:12:42.163Z,40.00
2023-01-20T06:13:42.173Z,40.30
2023-01-20T06:14:42.147Z,40.40
2023-01-20T06:15:44.059Z,45.00
2023-01-20T06:16:42.155Z,42.10
2023-01-20T06:17:42.131Z,39.20
2023-01-20T06:18:42.105Z,39.70
2023-01-20T06:19:42.091Z,43.50
2023-01-20T06:20:43.731Z,39.30
2023-01-20T06:21:48.239Z,40.90
2023-01-20T06:23:31.236Z,40.50
2023-01-20T06:25:42.824Z,44.70
2023-01-20T06:26:28.231Z,43.30
2023-01-20T06:27:28.221Z,39.00
2023-01-20T06:28:28.255Z,40.40
2023-01-20T06:29:28.199Z,37.40
2023-01-20T06:30:28.186Z,37.10
2023-01-20T06:31:28.217Z,43.40
2023-01-20T06:32:28.179Z,43.20
2023-01-20T06:33:28.170Z,43.50
2023-01-20T06:34:28.162Z,42.40
2023-01-20T06:35:28.132Z,40.20
2023-01-20T06:36:28.162Z,43.70
2023-01-20T06:37:28.208Z,40.90
2023-01-20T06:38:28.149Z,43.10
2023-01-20T06:39:28.118Z,39.90
2023-01-20T06:40:28.073Z,38.40
2023-01-20T06:41:28.079Z,41.30
2023-01-20T06:42:28.070Z,41.50
2023-01-20T06:43:28.060Z,40.30
2023-01-20T06:44:28.059Z,40.70
2023-01-20T06:45:28.040Z,40.10
2023-01-20T06:46:28.045Z,39.90
2023-01-20T06:47:28.028Z,40.00
2023-01-20T06:48:28.008Z,38.40
2023-01-20T06:49:27.986Z,40.60
2023-01-20T06:50:27.985Z,42.20
2023-01-20T06:51:27.961Z,42.60
2023-01-20T06:52:27.956Z,39.40
2023-01-20T06:53:27.992Z,41.80
2023-01-20T06:54:27.947Z,41.60
2023-01-20T06:55:27.936Z,41.00
2023-01-20T06:56:27.925Z,39.10
2023-01-20T06:57:27.924Z,40.40
2023-01-20T06:58:27.901Z,41.40
2023-01-20T06:59:27.884Z,40.90
2023-01-20T07:00:27.924Z,41.10
2023-01-20T07:01:27.930Z,40.30
2023-01-20T07:02:27.953Z,38.80
2023-01-20T07:03:27.844Z,40.60
2023-01-20T07:04:27.822Z,38.80
2023-01-20T07:05:27.814Z,36.50
2023-01-20T07:06:27.859Z,35.00
2023-01-20T07:07:27.782Z,41.10
2023-01-20T07:08:27.803Z,39.40
2023-01-20T07:09:27.771Z,39.70
2023-01-20T07:10:27.784Z,40.10
2023-01-20T07:11:27.759Z,39.30
2023-01-20T07:12:27.771Z,35.60
2023-01-20T07:13:27.741Z,37.00
2023-01-20T07:14:27.721Z,37.60
2023-01-20T07:15:27.695Z,37.30
2023-01-20T07:16:27.735Z,36.70
2023-01-20T07:17:27.682Z,38.00
2023-01-20T07:18:27.690Z,35.20
2023-01-20T07:19:27.682Z,41.30
2023-01-20T07:20:27.664Z,34.90
2023-01-20T07:21:27.643Z,41.60
2023-01-20T07:22:27.629Z,39.90
2023-01-20T07:23:27.649Z,39.90
2023-01-20T07:24:27.610Z,37.90
2023-01-20T07:25:27.589Z,38.00
2023-01-20T07:26:27.585Z,36.30
2023-01-20T07:27:27.582Z,35.40
2023-01-20T07:28:27.586Z,37.80
2023-01-20T07:29:27.563Z,40.60
2023-01-20T07:30:27.565Z,35.80
2023-01-20T07:31:27.572Z,34.50
2023-01-20T07:32:27.520Z,38.60
2023-01-20T07:33:27.522Z,37.50
2023-01-20T07:34:27.507Z,40.80
2023-01-20T07:35:27.487Z,34.10
2023-01-20T07:36:27.512Z,34.60
2023-01-20T07:37:27.471Z,37.30
2023-01-20T07:38:27.467Z,35.70
2023-01-20T07:39:27.513Z,38.70
2023-01-20T07:40:27.432Z,38.90
2023-01-20T07:41:27.455Z,38.50
2023-01-20T07:42:27.425Z,37.50
2023-01-20T07:43:27.407Z,33.90
2023-01-20T07:44:27.423Z,41.70
2023-01-20T07:45:27.398Z,37.20
2023-01-20T07:46:27.380Z,36.10
2023-01-20T07:47:27.358Z,36.80
2023-01-20T07:48:27.354Z,35.90
2023-01-20T07:49:27.352Z,32.40
2023-01-20T07:50:27.427Z,34.90
2023-01-20T07:51:27.312Z,33.50
2023-01-20T07:52:27.302Z,32.50
2023-01-20T07:53:27.292Z,36.90
2023-01-20T07:54:27.297Z,34.40
2023-01-20T07:55:27.277Z,34.10
2023-01-20T07:56:27.262Z,35.60
2023-01-20T07:57:27.244Z,36.60
2023-01-20T07:58:27.240Z,36.40
2023-01-20T07:59:27.248Z,35.80
2023-01-20T08:00:27.255Z,35.10
2023-01-20T08:01:27.337Z,36.10
2023-01-20T08:02:27.194Z,32.20
2023-01-20T08:03:27.558Z,35.20
2023-01-20T08:04:27.221Z,34.50
2023-01-20T08:05:27.173Z,34.00
2023-01-20T08:06:27.148Z,38.00
2023-01-20T08:07:27.135Z,35.50
2023-01-20T08:08:27.126Z,34.60
2023-01-20T08:09:27.136Z,31.20
2023-01-20T08:10:27.218Z,34.90
2023-01-20T08:11:27.107Z,33.40
2023-01-20T08:12:27.092Z,33.60
2023-01-20T08:13:27.093Z,35.90
2023-01-20T08:14:27.086Z,35.20
2023-01-20T08:15:27.066Z,33.20
2023-01-20T08:16:27.065Z,36.00
2023-01-20T08:17:27.040Z,35.70
2023-01-20T08:18:27.024Z,33.20
2023-01-20T08:19:27.032Z,32.20
2023-01-20T08:20:27.008Z,34.90
2023-01-20T08:21:27.002Z,33.90
2023-01-20T08:22:26.979Z,33.60
2023-01-20T08:23:26.967Z,33.90
2023-01-20T08:24:26.977Z,32.90
2023-01-20T08:25:26.941Z,34.20
2023-01-20T08:26:26.939Z,33.50
2023-01-20T08:27:26.914Z,32.30
2023-01-20T08:28:26.914Z,35.00
2023-01-20T08:29:26.926Z,33.40
2023-01-20T08:30:27.031Z,31.90
2023-01-20T08:31:26.973Z,36.50
2023-01-20T08:32:26.875Z,34.80
2023-01-20T08:33:26.863Z,32.20
2023-01-20T08:34:26.864Z,32.80
2023-01-20T08:35:26.842Z,34.20
2023-01-20T08:36:26.825Z,34.90
2023-01-20T08:37:26.817Z,33.60
2023-01-20T08:38:26.815Z,31.70
2023-01-20T08:39:26.811Z,31.20
2023-01-20T08:40:26.782Z,33.80
2023-01-20T08:41:26.772Z,32.60
2023-01-20T08:42:26.757Z,29.50
2023-01-20T08:43:26.764Z,33.90
2023-01-20T08:44:26.775Z,31.90
2023-01-20T08:45:26.723Z,29.20
2023-01-20T08:46:26.748Z,30.60
2023-01-20T08:47:26.718Z,31.40
2023-01-20T08:48:26.702Z,28.90
2023-01-20T08:49:26.694Z,30.10
2023-01-20T08:50:26.686Z,28.10
2023-01-20T08:51:26.720Z,31.00
2023-01-20T08:52:26.657Z,32.70
2023-01-20T08:53:26.655Z,30.70
2023-01-20T08:54:26.643Z,32.70
2023-01-20T08:55:26.640Z,29.30
2023-01-20T08:56:26.611Z,31.10
2023-01-20T08:57:26.603Z,30.20
2023-01-20T08:58:26.616Z,28.40
2023-01-20T08:59:26.589Z,28.70
2023-01-20T09:00:26.592Z,31.00
2023-01-20T09:01:26.576Z,30.20
2023-01-20T09:02:26.592Z,29.60
2023-01-20T09:03:26.556Z,31.50
2023-01-20T09:04:26.537Z,30.40
2023-01-20T09:05:26.510Z,33.70
2023-01-20T09:06:26.506Z,31.50
2023-01-20T09:07:26.487Z,30.90
2023-01-20T09:08:26.479Z,30.00
2023-01-20T09:09:26.485Z,30.70
2023-01-20T09:10:26.479Z,30.30
2023-01-20T09:11:26.506Z,30.20
2023-01-20T09:12:26.441Z,28.30
2023-01-20T09:13:26.431Z,29.90
2023-01-20T09:14:26.446Z,32.00
2023-01-20T09:15:26.423Z,29.90
2023-01-20T09:16:26.396Z,30.00
2023-01-20T09:17:26.397Z,28.50
2023-01-20T09:18:26.371Z,30.00
2023-01-20T09:19:26.411Z,26.70
2023-01-20T09:20:26.379Z,30.10
2023-01-20T09:21:26.346Z,28.00
2023-01-20T09:22:26.342Z,30.30
2023-01-20T09:23:26.318Z,30.70
2023-01-20T09:24:26.347Z,28.30
2023-01-20T09:25:26.314Z,26.80
2023-01-20T09:26:41.689Z,29.00
2023-01-20T09:27:26.288Z,28.60
2023-01-20T09:28:26.282Z,26.30
2023-01-20T09:29:26.302Z,26.60
2023-01-20T09:30:26.250Z,26.20
2023-01-20T09:31:26.553Z,28.90
2023-01-20T09:32:26.232Z,28.00
2023-01-20T09:33:26.211Z,30.20
2023-01-20T09:34:26.269Z,26.40
2023-01-20T09:35:26.217Z,26.60
2023-01-20T09:36:28.065Z,29.90
2023-01-20T09:37:26.207Z,30.80
2023-01-20T09:38:26.164Z,29.90
2023-01-20T09:39:26.177Z,30.10
2023-01-20T09:40:26.185Z,28.80
2023-01-20T09:41:26.133Z,31.50
2023-01-20T09:42:26.124Z,24.20
2023-01-20T09:43:26.122Z,30.00
2023-01-20T09:44:26.125Z,25.50
2023-01-20T09:45:26.105Z,26.10
2023-01-20T09:46:26.145Z,30.60
2023-01-20T09:47:26.094Z,26.50
2023-01-20T09:48:26.065Z,27.20
2023-01-20T09:49:26.062Z,25.20
2023-01-20T09:50:26.034Z,24.20
2023-01-20T09:51:26.030Z,25.10
2023-01-20T09:52:26.013Z,29.00
2023-01-20T09:53:25.992Z,28.90
2023-01-20T09:54:26.011Z,27.00
2023-01-20T09:55:25.966Z,27.50
2023-01-20T09:56:25.977Z,25.70
2023-01-20T09:57:25.955Z,27.10
2023-01-20T09:58:25.962Z,27.80
2023-01-20T09:59:26.075Z,25.70
2023-01-20T10:00:25.920Z,26.10
2023-01-20T10:01:25.926Z,23.30
2023-01-20T10:02:25.918Z,25.30
2023-01-20T10:03:25.892Z,25.10
2023-01-20T10:04:25.891Z,23.50
2023-01-20T10:05:25.929Z,27.00
2023-01-20T10:06:25.870Z,24.30
2023-01-20T10:07:25.856Z,25.80
2023-01-20T10:08:25.845Z,24.90
2023-01-20T10:09:25.839Z,24.00
2023-01-20T10:10:25.826Z,24.60
2023-01-20T10:11:25.815Z,24.00
2023-01-20T10:12:25.797Z,25.20
2023-01-20T10:13:25.783Z,26.10
2023-01-20T10:14:25.798Z,24.30
2023-01-20T10:15:25.778Z,21.00
2023-01-20T10:16:25.766Z,22.80
2023-01-20T10:17:25.738Z,25.00
2023-01-20T10:18:25.733Z,20.00
2023-01-20T10:19:25.748Z,22.10
2023-01-20T10:20:27.949Z,23.00
2023-01-20T10:21:25.724Z,25.00
2023-01-20T10:22:25.677Z,21.20
2023-01-20T10:23:25.666Z,25.30
2023-01-20T10:24:25.683Z,26.30
2023-01-20T10:25:25.647Z,25.90
2023-01-20T10:26:25.639Z,23.90
2023-01-20T10:27:25.642Z,26.20
2023-01-20T10:28:25.628Z,26.40
2023-01-20T10:29:25.638Z,23.00
2023-01-20T10:30:25.615Z,22.20
2023-01-20T10:31:25.593Z,22.70
2023-01-20T10:32:25.592Z,23.10
2023-01-20T10:33:25.563Z,20.70
2023-01-20T10:34:25.571Z,22.40
2023-01-20T10:35:25.554Z,24.30
2023-01-20T10:36:25.535Z,22.90
2023-01-20T10:37:25.529Z,24.10
2023-01-20T10:38:25.511Z,25.10
2023-01-20T10:39:25.522Z,21.10
2023-01-20T10:40:25.522Z,21.10
2023-01-20T10:41:25.477Z,21.60
2023-01-20T10:42:25.497Z,23.20
2023-01-20T10:43:25.461Z,19.80
2023-01-20T10:44:25.513Z,20.70
2023-01-20T10:45:25.446Z,23.00
2023-01-20T10:46:25.502Z,24.20
2023-01-20T10:47:25.422Z,24.30
2023-01-20T10:48:25.422Z,21.50
2023-01-20T10:49:25.413Z,23.10
2023-01-20T10:50:25.422Z,22.00
2023-01-20T10:51:25.399Z,21.80
2023-01-20T10:52:25.364Z,20.60
2023-01-20T10:53:25.365Z,23.40
2023-01-20T10:54:25.362Z,20.80
2023-01-20T10:55:25.328Z,20.80
2023-01-20T10:56:25.333Z,22.90
2023-01-20T10:57:25.306Z,23.90
2023-01-20T10:58:25.301Z,20.60
2023-01-20T10:59:25.301Z,19.40
2023-01-20T11:00:25.289Z,19.20
2023-01-20T11:01:25.336Z,21.80
2023-01-20T11:02:25.338Z,19.50
2023-01-20T11:03:25.259Z,23.40
2023-01-20T11:04:25.271Z,19.30
2023-01-20T11:05:25.220Z,22.00
2023-01-20T11:06:25.220Z,22.50
2023-01-20T11:07:25.197Z,22.20
2023-01-20T11:08:25.195Z,21.20
2023-01-20T11:09:25.195Z,20.60
2023-01-20T11:10:25.911Z,19.50
2023-01-20T11:11:25.156Z,22.60
2023-01-20T11:12:25.210Z,18.70
2023-01-20T11:13:25.141Z,19.90
2023-01-20T11:14:26.217Z,21.50
2023-01-20T11:15:25.105Z,19.70
2023-01-20T11:16:25.264Z,21.20
2023-01-20T11:17:25.099Z,19.60
2023-01-20T11:18:25.078Z,21.80
2023-01-20T11:19:25.076Z,19.00
2023-01-20T11:20:25.065Z,20.10
2023-01-20T11:21:25.053Z,20.00
2023-01-20T11:22:25.032Z,22.10
2023-01-20T11:23:25.026Z,21.30
2023-01-20T11:24:25.031Z,22.50
2023-01-20T11:25:25.935Z,20.70
2023-01-20T11:26:27.898Z,19.50
2023-01-20T11:27:24.984Z,20.20
2023-01-20T11:28:24.977Z,20.30
2023-01-20T11:29:24.987Z,18.40
2023-01-20T11:30:24.957Z,19.90
2023-01-20T11:31:24.961Z,20.50
2023-01-20T11:32:25.302Z,21.00
2023-01-20T11:33:25.010Z,19.10
2023-01-20T11:34:24.899Z,18.50
2023-01-20T11:35:24.911Z,19.70
2023-01-20T11:36:24.882Z,20.80
2023-01-20T11:37:24.877Z,19.10
2023-01-20T11:38:24.874Z,19.30
2023-01-20T11:39:24.860Z,18.50
2023-01-20T11:40:24.861Z,20.50
2023-01-20T11:41:24.829Z,18.80
2023-01-20T11:42:24.816Z,22.40
2023-01-20T11:43:24.808Z,19.60
2023-01-20T11:44:24.804Z,21.60
2023-01-20T11:45:24.800Z,21.20
2023-01-20T11:46:24.798Z,18.90
2023-01-20T11:47:24.781Z,20.60
2023-01-20T11:48:24.754Z,20.90
2023-01-20T11:49:24.748Z,21.00
2023-01-20T11:50:24.748Z,21.60
2023-01-20T11:51:24.834Z,20.80
2023-01-20T11:52:24.712Z,18.20
2023-01-20T11:53:24.729Z,22.40
2023-01-20T11:54:24.706Z,17.80
2023-01-20T11:55:24.702Z,17.70
2023-01-20T11:56:24.666Z,17.00
2023-01-20T11:57:24.656Z,22.10
2023-01-20T11:58:24.679Z,20.20
2023-01-20T11:59:24.651Z,19.40
2023-01-20T12:00:24.652Z,19.30
2023-01-20T12:01:24.616Z,21.90
2023-01-20T12:02:24.628Z,18.90
2023-01-20T12:03:24.596Z,20.50
2023-01-20T12:04:24.607Z,20.30
2023-01-20T12:05:24.589Z,21.00
2023-01-20T12:06:24.584Z,19.90
2023-01-20T12:07:24.554Z,19.40
2023-01-20T12:08:24.546Z,15.70
2023-01-20T12:09:24.537Z,21.30
2023-01-20T12:10:24.543Z,20.50
2023-01-20T12:11:24.516Z,19.80
2023-01-20T12:12:24.520Z,19.80
2023-01-20T12:13:24.494Z,17.40
2023-01-20T12:14:24.475Z,17.40
2023-01-20T12:15:24.477Z,21.00
2023-01-20T12:16:24.586Z,19.60
2023-01-20T12:17:24.449Z,16.50
2023-01-20T12:18:24.435Z,21.80
2023-01-20T12:19:24.420Z,21.30
2023-01-20T12:20:24.437Z,22.50
2023-01-20T12:21:24.418Z,19.70
2023-01-20T12:22:24.396Z,17.60
2023-01-20T12:23:24.400Z,18.80
2023-01-20T12:24:32.641Z,20.20
2023-01-20T12:25:24.374Z,21.30
2023-01-20T12:26:24.386Z,20.90
2023-01-20T12:27:24.354Z,20.10
2023-01-20T12:28:24.329Z,16.40
2023-01-20T12:29:24.309Z,18.30
2023-01-20T12:30:24.314Z,19.70
2023-01-20T12:31:24.382Z,20.30
2023-01-20T12:32:24.281Z,19.40
2023-01-20T12:33:24.280Z,17.60
2023-01-20T12:34:24.278Z,19.60
2023-01-20T12:35:24.263Z,20.90
2023-01-20T12:36:24.262Z,18.70
2023-01-20T12:37:24.250Z,20.10
2023-01-20T12:38:24.222Z,17.80
2023-01-20T12:39:24.207Z,18.10
2023-01-20T12:40:24.260Z,21.60
2023-01-20T12:41:24.189Z,15.60
2023-01-20T12:42:24.181Z,20.00
2023-01-20T12:43:24.176Z,16.20
2023-01-20T12:44:24.151Z,17.50
2023-01-20T12:45:24.150Z,17.10
2023-01-20T12:46:24.128Z,18.60
2023-01-20T12:47:24.122Z,20.10
2023-01-20T12:48:24.111Z,16.80
2023-01-20T12:49:24.093Z,18.40
2023-01-20T12:50:24.092Z,17.30
2023-01-20T12:51:24.083Z,22.40
2023-01-20T12:52:24.082Z,19.80
2023-01-20T12:53:24.064Z,19.80
2023-01-20T12:54:24.048Z,18.40